Time;durP1;ratioP1;P1;durP2;ratioP2;P2;SDS_P1;SDS_P2;PMS_P1;PMS_P2;Temp;Humidity;BMP_temperature;BMP_pressure;BME280_temperature;BME280_humidity;BME280_pressure;Samples;Min_cycle;Max_cycle;Signal;HPM_P1;HPM_P2
2022/07/04 00:00:19;;;;;;;1005.95;939.90;;;;;;;26.52;41.97;101015.91;694036;28;24389;-63
2022/07/04 00:00:40;;;;;;;1044.40;976.83;;;;;;;26.51;42.45;101014.28;693465;28;45349;-63
2022/07/04 00:01:01;;;;;;;1019.85;953.22;;;;;;;26.50;42.24;101013.41;694690;28;22388;-60
2022/07/04 00:01:23;;;;;;;1004.95;938.97;;;;;;;26.49;42.43;101014.53;693627;28;22373;-62
2022/07/04 00:01:44;;;;;;;975.15;910.22;;;;;;;26.48;42.35;101015.66;693679;28;46310;-63
2022/07/04 00:02:05;;;;;;;1012.97;946.72;;;;;;;26.46;42.47;101015.09;694217;28;22376;-63
2022/07/04 00:02:27;;;;;;;1017.85;951.45;;;;;;;26.46;42.16;101012.34;693409;28;46308;-60
2022/07/04 00:02:48;;;;;;;970.58;905.80;;;;;;;26.46;42.01;101011.47;694625;28;21544;-62
2022/07/04 00:03:10;;;;;;;950.13;886.17;;;;;;;26.43;42.28;101013.72;694130;28;21545;-62
2022/07/04 00:03:31;;;;;;;959.58;895.38;;;;;;;26.44;42.34;101011.75;695022;28;46270;-63
2022/07/04 00:03:53;;;;;;;991.10;925.75;;;;;;;26.44;42.12;101011.75;694403;28;23490;-62
2022/07/04 00:04:14;;;;;;;1010.35;944.25;;;;;;;26.44;42.10;101011.75;694235;28;21636;-63
2022/07/04 00:04:36;;;;;;;965.42;900.97;;;;;;;26.44;42.03;101015.38;693608;28;45294;-64
2022/07/04 00:04:57;;;;;;;988.60;923.25;;;;;;;26.43;42.54;101008.16;693346;28;46146;-61
2022/07/04 00:05:19;;;;;;;1026.95;960.17;;;;;;;26.44;42.34;101018.16;694139;28;22425;-62
2022/07/04 00:05:40;;;;;;;1012.65;946.55;;;;;;;26.44;42.50;101009.84;694408;28;22540;-63
2022/07/04 00:06:02;;;;;;;1018.03;951.72;;;;;;;26.41;42.21;101010.41;693549;28;44384;-64
2022/07/04 00:06:24;;;;;;;991.28;925.92;;;;;;;26.43;42.24;101015.66;692887;28;44359;-63
2022/07/04 00:06:45;;;;;;;955.28;891.08;;;;;;;26.41;42.20;101017.84;694398;28;23419;-63
2022/07/04 00:07:06;;;;;;;978.88;913.83;;;;;;;26.42;42.35;101014.81;694069;28;23522;-62
2022/07/04 00:07:28;;;;;;;1029.43;962.55;;;;;;;26.44;42.50;101012.59;693963;28;23416;-62
2022/07/04 00:07:49;;;;;;;1029.90;963.05;;;;;;;26.44;42.16;101006.22;692787;28;67263;-63
2022/07/04 00:08:11;;;;;;;1023.80;957.15;;;;;;;26.44;42.47;101015.38;694154;28;21302;-62
2022/07/04 00:08:32;;;;;;;1027.40;960.70;;;;;;;26.44;41.95;101011.75;694182;28;21522;-62
2022/07/04 00:08:55;;;;;;;993.20;927.75;;;;;;;26.43;41.94;101015.66;695012;28;1569;-62
2022/07/04 00:09:16;;;;;;;969.03;904.47;;;;;;;26.43;41.91;101010.13;693626;28;45075;-63
2022/07/04 00:09:37;;;;;;;995.65;930.20;;;;;;;26.41;42.09;101010.41;693710;28;23485;-62
2022/07/04 00:09:58;;;;;;;1018.90;952.60;;;;;;;26.40;41.89;101017.03;694237;28;22602;-61
2022/07/04 00:10:21;;;;;;;1022.33;955.97;;;;;;;26.40;42.26;101008.72;693101;28;44043;-63
2022/07/04 00:10:42;;;;;;;1015.10;949.03;;;;;;;26.40;41.77;101005.94;693067;28;47711;-62
2022/07/04 00:11:03;;;;;;;1016.33;950.47;;;;;;;26.39;41.97;101009.00;694198;28;23459;-62
2022/07/04 00:11:27;;;;;;;1025.75;959.85;;;;;;;26.39;41.96;101018.13;693975;28;23545;-63
2022/07/04 00:11:48;;;;;;;994.40;929.88;;;;;;;26.39;42.04;101009.81;692103;28;92503;-62
2022/07/04 00:12:09;;;;;;;995.80;931.10;;;;;;;26.39;42.42;101011.75;694023;28;23407;-62
2022/07/04 00:12:31;;;;;;;1042.35;976.00;;;;;;;26.39;42.02;101009.81;693886;28;22161;-63
2022/07/04 00:12:52;;;;;;;1024.40;958.83;;;;;;;26.39;41.88;101011.75;693777;28;44274;-59
2022/07/04 00:13:14;;;;;;;1032.13;966.30;;;;;;;26.39;42.36;101015.34;694109;28;22381;-62
2022/07/04 00:13:35;;;;;;;1007.70;942.85;;;;;;;26.39;42.02;101014.53;693477;28;45249;-60
2022/07/04 00:13:57;;;;;;;982.53;918.58;;;;;;;26.39;42.31;101011.75;693550;28;23440;-62
2022/07/04 00:14:18;;;;;;;1016.47;951.30;;;;;;;26.38;41.88;101010.09;694165;28;21390;-61
2022/07/04 00:14:39;;;;;;;1051.50;984.75;;;;;;;26.38;42.44;101010.09;693345;28;44362;-59
2022/07/04 00:15:02;;;;;;;1027.78;962.15;;;;;;;26.39;41.92;101009.00;694849;28;22373;-60
2022/07/04 00:15:24;;;;;;;998.78;934.13;;;;;;;26.38;41.93;101002.63;692150;28;69251;-59
2022/07/04 00:15:45;;;;;;;1002.65;938.53;;;;;;;26.38;41.90;101010.94;693726;28;23423;-62
2022/07/04 00:16:06;;;;;;;1046.75;981.35;;;;;;;26.37;42.08;101006.50;693982;28;22423;-61
2022/07/04 00:16:28;;;;;;;1029.68;964.38;;;;;;;26.35;42.31;101005.97;693503;28;21359;-60
2022/07/04 00:16:49;;;;;;;1008.20;943.45;;;;;;;26.37;41.98;101006.50;692779;28;69472;-59
2022/07/04 00:17:11;;;;;;;989.50;925.20;;;;;;;26.36;42.17;101010.38;692631;28;45596;-63
2022/07/04 00:17:32;;;;;;;1038.20;972.30;;;;;;;26.35;42.00;101014.28;693829;28;23290;-59
2022/07/04 00:17:54;;;;;;;1030.45;964.90;;;;;;;26.35;41.77;101017.03;693317;28;21540;-63
2022/07/04 00:18:16;;;;;;;1019.53;954.17;;;;;;;26.35;42.32;101013.41;695284;28;1423;-63
2022/07/04 00:18:39;;;;;;;1011.55;946.67;;;;;;;26.35;41.82;101022.56;695933;28;21524;-63
2022/07/04 00:19:01;;;;;;;980.80;917.08;;;;;;;26.32;42.20;101016.78;693228;28;69267;-63
2022/07/04 00:19:23;;;;;;;1030.15;964.55;;;;;;;26.33;41.78;101010.97;694629;28;45428;-64
2022/07/04 00:19:44;;;;;;;1034.15;968.45;;;;;;;26.33;41.78;101012.88;693954;28;44360;-64
2022/07/04 00:20:07;;;;;;;1037.15;971.22;;;;;;;26.31;41.82;101018.69;694647;28;21590;-64
2022/07/04 00:20:28;;;;;;;1015.40;950.33;;;;;;;26.32;42.30;101016.78;692891;28;69491;-64
2022/07/04 00:20:50;;;;;;;977.38;913.67;;;;;;;26.31;42.13;101012.31;694453;28;23631;-64
2022/07/04 00:21:11;;;;;;;1016.78;951.47;;;;;;;26.31;42.24;101015.09;693255;28;46243;-63
2022/07/04 00:21:34;;;;;;;1043.82;977.67;;;;;;;26.30;41.78;101011.50;693463;28;21321;-64
2022/07/04 00:21:56;;;;;;;1029.13;963.55;;;;;;;26.31;42.31;101010.38;692639;28;69385;-63
2022/07/04 00:22:17;;;;;;;1002.58;937.97;;;;;;;26.31;41.82;101007.59;693831;28;21533;-61
2022/07/04 00:22:40;;;;;;;992.67;928.63;;;;;;;26.31;42.29;101007.59;693373;28;46116;-62
2022/07/04 00:23:01;;;;;;;1034.15;968.53;;;;;;;26.31;42.30;101006.78;693389;28;46311;-63
2022/07/04 00:23:22;;;;;;;1016.38;951.40;;;;;;;26.30;41.71;101010.66;696730;28;20646;-62
2022/07/04 00:23:43;;;;;;;1012.92;948.20;;;;;;;26.29;42.28;101003.47;697028;28;21524;-62
2022/07/04 00:24:06;;;;;;;975.90;912.50;;;;;;;26.25;42.22;101003.19;695276;28;46299;-62
2022/07/04 00:24:27;;;;;;;996.35;932.10;;;;;;;26.30;41.73;101008.75;695302;28;67238;-63
2022/07/04 00:24:48;;;;;;;1041.50;975.45;;;;;;;26.30;42.24;101007.88;696823;28;21331;-62
2022/07/04 00:25:10;;;;;;;1027.03;961.58;;;;;;;26.32;41.77;101014.00;695335;28;46294;-63
2022/07/04 00:25:32;;;;;;;1026.70;961.40;;;;;;;26.29;41.99;101003.47;693893;28;22403;-62
2022/07/04 00:25:53;;;;;;;1021.35;956.17;;;;;;;26.28;41.77;101008.16;693016;28;44376;-62
2022/07/04 00:26:15;;;;;;;981.80;918.10;;;;;;;26.30;42.10;101013.41;693976;28;21323;-63
2022/07/04 00:26:37;;;;;;;985.53;921.70;;;;;;;26.30;41.76;101007.88;692407;28;46353;-62
2022/07/04 00:26:58;;;;;;;1040.75;974.60;;;;;;;26.28;42.29;101008.16;692931;28;46394;-62
2022/07/04 00:27:21;;;;;;;1056.63;989.63;;;;;;;26.29;41.94;101015.38;692787;28;46241;-63
2022/07/04 00:27:42;;;;;;;1024.15;958.67;;;;;;;26.28;42.15;101010.09;692473;28;67697;-62
2022/07/04 00:28:04;;;;;;;1037.65;971.78;;;;;;;26.26;41.69;101005.66;692281;28;23475;-63
2022/07/04 00:28:25;;;;;;;1020.53;955.45;;;;;;;26.25;42.02;101014.25;691735;28;46281;-64
2022/07/04 00:28:47;;;;;;;1006.80;942.20;;;;;;;26.26;41.86;101013.16;692397;28;21535;-65
2022/07/04 00:29:08;;;;;;;983.00;919.10;;;;;;;26.25;42.02;101006.78;693097;28;44392;-61
2022/07/04 00:29:29;;;;;;;991.08;926.90;;;;;;;26.25;41.71;101001.25;692344;28;20418;-62
2022/07/04 00:29:51;;;;;;;1022.10;956.65;;;;;;;26.26;42.24;101004.84;688890;28;21531;-62
2022/07/04 00:30:12;;;;;;;984.55;920.50;;;;;;;26.25;41.93;101012.34;690672;28;46347;-62
2022/07/04 00:30:45;;;;;;;1007.63;942.78;;;;;;;26.25;42.17;101011.47;688317;28;98344;-62
2022/07/04 00:31:06;;;;;;;1040.65;974.45;;;;;;;26.24;41.97;101009.84;690894;28;46249;-61
2022/07/04 00:31:27;;;;;;;993.60;929.15;;;;;;;26.24;41.91;101012.59;691430;28;23503;-62
2022/07/04 00:31:49;;;;;;;992.63;928.22;;;;;;;26.25;41.93;101015.09;696088;28;22399;-62
2022/07/04 00:32:10;;;;;;;1043.63;978.63;;;;;;;26.23;41.74;101009.00;695075;28;69434;-62
2022/07/04 00:32:32;;;;;;;1038.07;974.72;;;;;;;26.22;41.75;101007.34;694154;28;45269;-63
2022/07/04 00:32:53;;;;;;;1009.20;947.30;;;;;;;26.24;42.25;101007.88;694975;28;22378;-61
2022/07/04 00:33:14;;;;;;;1002.85;940.55;;;;;;;26.24;41.74;101007.06;694125;28;22378;-60
2022/07/04 00:33:36;;;;;;;992.15;928.50;;;;;;;26.25;41.65;101004.03;694395;28;22277;-62
2022/07/04 00:33:58;;;;;;;1043.13;976.97;;;;;;;26.25;42.10;101015.09;692742;28;68299;-62
2022/07/04 00:34:19;;;;;;;1033.68;967.85;;;;;;;26.25;42.03;101009.56;693734;28;21547;-62
2022/07/04 00:34:40;;;;;;;1014.90;949.67;;;;;;;26.24;42.06;101012.59;693804;28;22448;-62
2022/07/04 00:35:01;;;;;;;1030.97;965.08;;;;;;;26.24;41.95;101013.44;694014;28;22377;-62
2022/07/04 00:35:23;;;;;;;989.75;925.40;;;;;;;26.24;42.28;101013.44;694146;28;23802;-62
2022/07/04 00:35:44;;;;;;;1006.05;941.42;;;;;;;26.23;41.88;101019.25;692951;28;46151;-62
2022/07/04 00:36:06;;;;;;;1024.15;958.50;;;;;;;26.22;41.88;101004.56;694315;28;22386;-62
2022/07/04 00:36:27;;;;;;;1008.28;942.97;;;;;;;26.21;42.30;101008.44;693126;28;44303;-62
2022/07/04 00:36:50;;;;;;;1019.88;954.03;;;;;;;26.21;41.77;101008.44;693986;28;23449;-62
2022/07/04 00:37:11;;;;;;;1023.05;956.55;;;;;;;26.20;41.93;101015.06;692457;28;47583;-62
2022/07/04 00:37:33;;;;;;;993.95;928.65;;;;;;;26.18;41.72;101011.75;694336;28;21416;-63
2022/07/04 00:37:54;;;;;;;1000.30;934.55;;;;;;;26.18;42.29;101010.94;693505;28;46421;-62
2022/07/04 00:38:16;;;;;;;1044.93;977.45;;;;;;;26.18;41.78;101022.00;694187;28;23540;-62
2022/07/04 00:38:37;;;;;;;1025.35;958.80;;;;;;;26.17;41.88;101014.81;692684;28;69465;-62
2022/07/04 00:38:58;;;;;;;986.13;920.97;;;;;;;26.11;41.80;101016.72;693901;28;22278;-62
2022/07/04 00:39:20;;;;;;;1009.90;943.85;;;;;;;26.17;41.83;101017.56;694117;28;23417;-63
2022/07/04 00:39:42;;;;;;;1040.50;973.42;;;;;;;26.15;41.87;101023.38;694422;28;22422;-63
2022/07/04 00:40:04;;;;;;;1040.50;973.28;;;;;;;26.16;42.07;101021.44;692093;28;69409;-62
2022/07/04 00:40:26;;;;;;;1004.75;938.80;;;;;;;26.14;42.02;101021.72;693140;28;46144;-62
2022/07/04 00:40:47;;;;;;;964.45;900.05;;;;;;;26.12;42.06;101020.34;693751;28;23559;-63
2022/07/04 00:41:09;;;;;;;1008.28;942.33;;;;;;;26.13;42.41;101025.59;693920;28;22374;-62
2022/07/04 00:41:30;;;;;;;1034.63;967.72;;;;;;;26.14;41.88;101021.72;692409;28;44373;-64
2022/07/04 00:41:53;;;;;;;992.78;927.42;;;;;;;26.12;41.92;101015.63;693746;28;46296;-61
2022/07/04 00:42:14;;;;;;;971.20;906.60;;;;;;;26.12;42.26;101018.41;692809;28;64249;-62
2022/07/04 00:42:35;;;;;;;1008.55;942.55;;;;;;;26.12;42.07;101012.84;695634;28;11530;-62
2022/07/04 00:43:01;;;;;;;1021.58;954.97;;;;;;;26.12;42.21;101018.41;694161;28;21673;-63
2022/07/04 00:43:23;;;;;;;995.17;929.67;;;;;;;26.10;42.46;101017.84;692174;28;76581;-61
2022/07/04 00:43:59;;;;;;;1010.85;944.70;;;;;;;26.10;42.54;101019.75;693719;28;46402;-61
2022/07/04 00:44:21;;;;;;;1020.67;954.22;;;;;;;26.08;42.02;101007.06;690255;28;138434;-61
2022/07/04 00:44:43;;;;;;;1000.97;935.33;;;;;;;26.06;42.65;101012.00;693750;28;45259;-62
2022/07/04 00:45:05;;;;;;;979.78;914.83;;;;;;;26.07;42.63;101010.09;694259;28;23491;-62
2022/07/04 00:45:27;;;;;;;1037.43;970.33;;;;;;;26.07;42.25;101007.31;696247;28;1091;-63
2022/07/04 00:45:49;;;;;;;1025.20;958.60;;;;;;;26.06;42.15;101017.53;693784;28;45259;-62
2022/07/04 00:46:10;;;;;;;1008.25;942.28;;;;;;;26.05;42.11;101015.91;692455;28;68162;-61
2022/07/04 00:46:31;;;;;;;1009.88;943.80;;;;;;;26.05;42.67;101015.91;694112;28;22393;-62
2022/07/04 00:46:53;;;;;;;1034.50;967.55;;;;;;;26.07;42.85;101018.41;693803;28;22391;-62
2022/07/04 00:47:15;;;;;;;1020.35;953.92;;;;;;;26.07;42.66;101019.22;693927;28;21404;-62
2022/07/04 00:47:36;;;;;;;1005.10;939.35;;;;;;;26.10;42.42;101019.75;693265;28;46343;-63
2022/07/04 00:47:57;;;;;;;1022.95;956.35;;;;;;;26.10;42.31;101020.63;693060;28;46365;-62
2022/07/04 00:48:19;;;;;;;986.13;920.95;;;;;;;26.10;42.08;101023.38;694437;28;22420;-61
2022/07/04 00:48:40;;;;;;;998.60;933.00;;;;;;;26.10;42.23;101011.47;694303;28;23420;-63
2022/07/04 00:49:04;;;;;;;1036.15;969.08;;;;;;;26.09;42.14;101021.72;695182;28;22399;-62
2022/07/04 00:49:25;;;;;;;1011.85;945.67;;;;;;;26.09;42.77;101027.25;692000;28;92168;-61
2022/07/04 00:49:46;;;;;;;1030.28;963.40;;;;;;;26.10;42.13;101014.22;694402;28;22300;-62
2022/07/04 00:50:08;;;;;;;993.53;927.95;;;;;;;26.10;42.75;101020.63;693822;28;46541;-61
2022/07/04 00:50:29;;;;;;;997.40;931.75;;;;;;;26.08;42.68;101020.88;694300;28;21546;-61
2022/07/04 00:50:51;;;;;;;1045.07;977.55;;;;;;;26.07;42.52;101005.38;694168;28;23417;-62
2022/07/04 00:51:13;;;;;;;1027.07;960.38;;;;;;;26.07;42.34;101016.44;693323;28;44372;-62
2022/07/04 00:51:34;;;;;;;1014.03;947.97;;;;;;;26.04;42.31;101010.63;693006;28;45239;-62
2022/07/04 00:51:55;;;;;;;1001.58;935.80;;;;;;;26.05;42.46;101021.44;694358;28;23497;-62
2022/07/04 00:52:17;;;;;;;1032.00;965.15;;;;;;;26.02;42.35;101010.91;693746;28;44187;-59
2022/07/04 00:52:38;;;;;;;1008.78;942.83;;;;;;;26.05;42.79;101017.81;694009;28;45216;-61
2022/07/04 00:53:01;;;;;;;1000.90;935.17;;;;;;;26.04;42.34;101013.41;694532;28;21532;-62
2022/07/04 00:53:23;;;;;;;1033.13;966.22;;;;;;;26.04;42.21;101010.63;693245;28;69234;-62
2022/07/04 00:53:44;;;;;;;1035.32;968.33;;;;;;;26.03;42.19;101000.66;693636;28;44372;-62
2022/07/04 00:54:07;;;;;;;1023.20;956.60;;;;;;;26.02;42.65;101010.91;694288;28;21548;-61
2022/07/04 00:54:31;;;;;;;1016.70;950.38;;;;;;;26.01;42.53;100994.59;692805;28;69422;-62
2022/07/04 00:54:52;;;;;;;989.47;924.17;;;;;;;26.00;42.40;100996.53;692218;28;92084;-61
2022/07/04 00:55:15;;;;;;;1030.25;963.38;;;;;;;25.98;42.84;101003.44;693934;28;21543;-62
2022/07/04 00:55:37;;;;;;;1029.50;962.63;;;;;;;25.99;42.42;101005.09;693969;28;45216;-62
2022/07/04 00:55:58;;;;;;;1021.13;954.63;;;;;;;26.00;42.96;101013.13;692525;28;69787;-62
2022/07/04 00:56:22;;;;;;;1021.67;955.15;;;;;;;25.96;42.70;101008.38;692742;28;46564;-60
2022/07/04 00:56:44;;;;;;;989.97;924.60;;;;;;;25.99;42.78;101005.09;692803;28;69123;-61
2022/07/04 00:57:08;;;;;;;987.88;922.38;;;;;;;25.98;43.02;101014.50;692756;28;45249;-62
2022/07/04 00:57:29;;;;;;;1044.78;977.22;;;;;;;25.96;42.47;101005.63;690955;28;113550;-62
2022/07/04 00:57:52;;;;;;;1033.05;966.00;;;;;;;25.95;42.99;101018.59;694706;28;24757;-62
2022/07/04 00:58:13;;;;;;;1008.97;942.95;;;;;;;25.93;42.98;101014.47;693571;28;45213;-63
2022/07/04 00:58:36;;;;;;;1028.10;961.40;;;;;;;25.94;42.62;101016.13;693303;28;46308;-64
2022/07/04 00:58:58;;;;;;;1020.88;954.28;;;;;;;25.93;43.03;101011.72;692341;28;70573;-62
2022/07/04 00:59:20;;;;;;;1006.58;940.58;;;;;;;25.92;42.56;101010.03;692118;28;69273;-60
2022/07/04 00:59:41;;;;;;;1019.50;953.10;;;;;;;25.90;43.14;101013.06;693985;28;23380;-61
2022/07/04 01:00:04;;;;;;;1033.07;966.08;;;;;;;25.89;42.63;101005.88;695150;28;20803;-62
2022/07/04 01:00:26;;;;;;;1030.47;963.47;;;;;;;25.87;42.92;101005.31;692085;28;67472;-62
2022/07/04 01:00:47;;;;;;;1032.70;965.70;;;;;;;25.86;42.70;101007.25;693841;28;46261;-62
2022/07/04 01:01:08;;;;;;;1016.25;949.80;;;;;;;25.85;43.00;101002.81;693648;28;23535;-61
2022/07/04 01:01:31;;;;;;;973.65;908.85;;;;;;;25.85;43.10;101004.78;693208;28;21588;-61
2022/07/04 01:01:52;;;;;;;1016.10;949.72;;;;;;;25.84;43.03;101011.41;693105;28;45221;-62
2022/07/04 01:02:13;;;;;;;1040.07;972.78;;;;;;;25.81;42.90;101000.88;693454;28;45244;-62
2022/07/04 01:02:34;;;;;;;1036.63;969.45;;;;;;;25.83;42.85;101009.72;693671;28;22407;-63
2022/07/04 01:02:56;;;;;;;1024.75;958.05;;;;;;;25.80;43.34;101005.59;694315;28;22389;-63
2022/07/04 01:03:18;;;;;;;1016.83;950.42;;;;;;;25.81;43.32;101007.22;693809;28;22190;-62
2022/07/04 01:03:39;;;;;;;997.97;932.38;;;;;;;25.81;43.16;101003.63;692740;28;47140;-61
2022/07/04 01:04:02;;;;;;;1038.97;971.60;;;;;;;25.78;42.92;101005.00;694431;28;22390;-62
2022/07/04 01:04:24;;;;;;;1026.22;959.38;;;;;;;25.78;42.92;100993.13;692593;28;69558;-64
2022/07/04 01:04:45;;;;;;;997.13;931.50;;;;;;;25.75;43.31;100999.19;693115;28;45262;-64
2022/07/04 01:05:08;;;;;;;1025.82;959.05;;;;;;;25.75;43.21;100996.44;692976;28;45832;-62
2022/07/04 01:05:30;;;;;;;1041.55;974.33;;;;;;;25.76;42.82;101004.47;691879;28;68310;-64
2022/07/04 01:05:51;;;;;;;1019.20;952.72;;;;;;;25.77;43.37;101003.38;693691;28;22614;-63
2022/07/04 01:06:13;;;;;;;990.08;924.70;;;;;;;25.76;43.25;101000.88;693838;28;22381;-62
2022/07/04 01:06:34;;;;;;;1033.25;966.17;;;;;;;25.75;43.16;101001.97;692350;28;46320;-62
2022/07/04 01:06:57;;;;;;;1054.07;986.13;;;;;;;25.77;42.96;101000.59;694024;28;22386;-63
2022/07/04 01:07:28;;;;;;;1019.40;952.78;;;;;;;25.78;43.63;100999.47;691859;28;98542;-63
2022/07/04 01:07:49;;;;;;;1025.38;958.58;;;;;;;25.79;43.41;101006.69;694611;28;21662;-63
2022/07/04 01:08:11;;;;;;;1014.50;948.10;;;;;;;25.79;43.29;101000.31;693495;28;46412;-63
2022/07/04 01:08:33;;;;;;;986.72;921.50;;;;;;;25.81;43.21;101004.47;694032;28;45208;-63
2022/07/04 01:08:54;;;;;;;1038.72;971.38;;;;;;;25.78;43.07;100993.94;694001;28;46151;-63
2022/07/04 01:09:16;;;;;;;1056.80;988.80;;;;;;;25.80;43.49;101002.81;694650;28;22391;-63
2022/07/04 01:09:37;;;;;;;1030.43;963.50;;;;;;;25.77;43.09;101000.59;693445;28;45124;-63
2022/07/04 01:09:58;;;;;;;1027.65;960.70;;;;;;;25.80;43.25;101004.72;694269;28;22373;-63
2022/07/04 01:10:21;;;;;;;992.10;926.55;;;;;;;25.81;43.02;101004.47;694019;28;23545;-63
2022/07/04 01:10:42;;;;;;;1030.38;963.22;;;;;;;25.81;43.42;101003.63;693077;28;46312;-63
2022/07/04 01:11:03;;;;;;;1044.60;977.05;;;;;;;25.82;43.32;101002.56;694571;28;21385;-63
2022/07/04 01:11:25;;;;;;;1018.45;951.95;;;;;;;25.81;43.03;101004.47;693149;28;46314;-63
2022/07/04 01:11:48;;;;;;;1027.30;960.40;;;;;;;25.80;43.00;100997.28;693700;28;44360;-63
2022/07/04 01:12:11;;;;;;;999.95;934.13;;;;;;;25.80;43.50;101011.13;692205;28;69341;-63
2022/07/04 01:12:32;;;;;;;1040.50;973.20;;;;;;;25.80;43.28;101005.59;692976;28;70307;-63
2022/07/04 01:12:55;;;;;;;1022.58;956.08;;;;;;;25.81;43.50;101004.47;693264;28;46397;-63
2022/07/04 01:13:20;;;;;;;1028.28;961.47;;;;;;;25.82;43.49;100999.78;693574;28;44356;-63
2022/07/04 01:13:41;;;;;;;1029.20;962.58;;;;;;;25.80;43.34;101007.50;689697;28;136275;-63
2022/07/04 01:14:05;;;;;;;1025.97;959.25;;;;;;;25.80;43.58;101007.50;693128;28;46239;-63
2022/07/04 01:14:27;;;;;;;995.00;929.50;;;;;;;25.80;43.38;101007.50;692378;28;70195;-63
2022/07/04 01:14:48;;;;;;;1027.03;960.35;;;;;;;25.78;43.43;101007.78;693135;28;45233;-63
2022/07/04 01:15:10;;;;;;;1038.80;971.60;;;;;;;25.78;43.47;101009.72;693807;28;23435;-63
2022/07/04 01:15:31;;;;;;;1019.97;953.58;;;;;;;25.78;43.45;101010.53;694936;28;44898;-62
2022/07/04 01:15:53;;;;;;;1020.58;954.13;;;;;;;25.77;43.74;101010.81;694476;28;22354;-63
2022/07/04 01:16:15;;;;;;;1023.47;957.03;;;;;;;25.78;43.08;101015.25;693259;28;46553;-63
2022/07/04 01:16:36;;;;;;;1003.33;937.50;;;;;;;25.78;43.20;101018.84;692378;28;44408;-63
2022/07/04 01:16:57;;;;;;;1046.30;978.65;;;;;;;25.79;43.52;101028.81;694471;28;23311;-62
2022/07/04 01:17:19;;;;;;;1035.90;968.65;;;;;;;25.80;43.54;101030.47;693933;28;21492;-63
2022/07/04 01:17:40;;;;;;;1019.60;953.15;;;;;;;25.80;43.37;101033.25;693172;28;45306;-62
2022/07/04 01:18:01;;;;;;;1009.97;943.70;;;;;;;25.81;43.52;101029.34;694008;28;21551;-62
2022/07/04 01:18:23;;;;;;;985.03;919.70;;;;;;;25.82;43.25;101032.97;693959;28;22412;-62
2022/07/04 01:18:45;;;;;;;1028.78;961.72;;;;;;;25.82;43.39;101042.09;694317;28;22408;-62
2022/07/04 01:19:06;;;;;;;1047.10;979.30;;;;;;;25.83;43.03;101040.16;692209;28;69402;-63
2022/07/04 01:19:27;;;;;;;1025.70;958.95;;;;;;;25.83;43.54;101049.31;694211;28;21544;-63
2022/07/04 01:19:49;;;;;;;1037.93;970.70;;;;;;;25.84;43.23;101048.19;694023;28;24363;-62
2022/07/04 01:20:12;;;;;;;1030.55;963.60;;;;;;;25.84;43.04;101039.88;694209;28;23459;-63
2022/07/04 01:20:37;;;;;;;1031.25;964.25;;;;;;;25.84;43.31;101039.88;691296;28;90743;-62
2022/07/04 01:20:58;;;;;;;1007.10;941.00;;;;;;;25.84;43.39;101045.41;691711;28;90816;-63
2022/07/04 01:21:22;;;;;;;1021.88;955.22;;;;;;;25.84;43.08;101053.72;693105;28;21447;-63
2022/07/04 01:21:43;;;;;;;1045.32;977.80;;;;;;;25.86;43.32;101047.91;690831;28;114517;-61
2022/07/04 01:22:06;;;;;;;1036.20;968.90;;;;;;;25.83;43.25;101052.06;693642;28;23547;-62
2022/07/04 01:22:28;;;;;;;1025.28;958.33;;;;;;;25.83;43.23;101042.91;692958;28;45239;-63
2022/07/04 01:22:51;;;;;;;1023.50;956.72;;;;;;;25.82;43.41;101044.88;693091;28;46314;-63
2022/07/04 01:23:12;;;;;;;1022.63;955.97;;;;;;;25.83;43.42;101046.53;692778;28;92085;-62
2022/07/04 01:23:37;;;;;;;1023.10;956.35;;;;;;;25.84;43.04;101041.81;693046;28;46521;-62
2022/07/04 01:23:58;;;;;;;1010.80;944.55;;;;;;;25.83;43.08;101046.53;692619;28;89948;-60
2022/07/04 01:24:21;;;;;;;1048.75;981.13;;;;;;;25.84;43.37;101053.72;694041;28;15172;-63
2022/07/04 01:24:43;;;;;;;1029.55;962.50;;;;;;;25.84;42.93;101045.41;691837;28;92825;-62
2022/07/04 01:25:06;;;;;;;1032.00;964.88;;;;;;;25.84;43.61;101048.19;694708;28;993;-63
2022/07/04 01:25:28;;;;;;;1032.55;965.33;;;;;;;25.86;43.56;101050.69;691785;28;67486;-61
2022/07/04 01:25:50;;;;;;;1000.45;934.60;;;;;;;25.86;43.18;101048.75;694146;28;22168;-63
2022/07/04 01:26:12;;;;;;;1012.20;946.05;;;;;;;25.87;43.26;101046.81;693076;28;44409;-60
2022/07/04 01:26:33;;;;;;;1057.47;989.45;;;;;;;25.86;43.13;101053.44;692331;28;46495;-60
2022/07/04 01:26:54;;;;;;;1045.05;977.47;;;;;;;25.85;43.07;101046.28;693366;28;21501;-63
2022/07/04 01:27:16;;;;;;;1024.47;957.58;;;;;;;25.84;43.50;101050.94;693075;28;23318;-61
2022/07/04 01:27:38;;;;;;;1030.80;963.80;;;;;;;25.85;43.21;101043.50;693513;28;46337;-62
2022/07/04 01:27:59;;;;;;;1032.18;965.28;;;;;;;25.84;43.11;101042.66;693314;28;44402;-61
2022/07/04 01:28:21;;;;;;;1021.03;954.65;;;;;;;25.85;42.99;101047.09;693924;28;21543;-61
2022/07/04 01:28:44;;;;;;;998.25;932.67;;;;;;;25.84;43.39;101048.19;692914;28;44367;-62
2022/07/04 01:29:06;;;;;;;1039.10;971.72;;;;;;;25.84;43.36;101050.13;692625;28;46652;-62
2022/07/04 01:29:27;;;;;;;1026.05;959.33;;;;;;;25.84;43.11;101044.59;693188;28;45258;-63
2022/07/04 01:29:49;;;;;;;1034.73;967.67;;;;;;;25.82;43.05;101050.41;693082;28;45213;-61
2022/07/04 01:30:10;;;;;;;1035.53;968.35;;;;;;;25.82;43.41;101047.63;693026;28;46247;-60
2022/07/04 01:30:31;;;;;;;1026.05;959.25;;;;;;;25.84;43.03;101050.13;693198;28;44365;-62
2022/07/04 01:30:54;;;;;;;1027.13;960.22;;;;;;;25.83;43.48;101046.53;694218;28;22400;-62
2022/07/04 01:31:15;;;;;;;1032.50;965.50;;;;;;;25.84;43.24;101047.38;693038;28;44361;-61
2022/07/04 01:31:36;;;;;;;1041.80;974.38;;;;;;;25.83;43.36;101045.69;691617;28;69410;-60
2022/07/04 01:32:03;;;;;;;1025.97;959.15;;;;;;;25.82;43.58;101047.63;693715;28;22460;-61
2022/07/04 01:32:25;;;;;;;1021.78;955.15;;;;;;;25.80;43.06;101047.09;688902;28;152839;-61
2022/07/04 01:32:47;;;;;;;1022.83;956.07;;;;;;;25.80;43.43;101049.84;692386;28;67467;-62
2022/07/04 01:33:08;;;;;;;1070.30;999.80;;;;;;;25.80;43.49;101046.22;692622;28;46322;-62
2022/07/04 01:33:29;;;;;;;1038.88;971.60;;;;;;;25.75;43.30;101043.47;694087;28;23455;-61
2022/07/04 01:33:51;;;;;;;1039.88;972.67;;;;;;;25.80;43.58;101051.75;693841;28;23482;-60
2022/07/04 01:34:12;;;;;;;1034.47;967.40;;;;;;;25.78;43.15;101048.44;692944;28;46402;-61
2022/07/04 01:34:34;;;;;;;999.10;933.47;;;;;;;25.79;43.21;101053.72;694051;28;22250;-63
2022/07/04 01:34:55;;;;;;;1046.05;978.47;;;;;;;25.76;43.59;101051.47;692999;28;46246;-61
2022/07/04 01:35:18;;;;;;;1034.60;967.55;;;;;;;25.77;43.76;101052.31;693634;28;21512;-61
2022/07/04 01:35:40;;;;;;;1030.32;963.53;;;;;;;25.76;43.83;101048.72;692307;28;66816;-63
2022/07/04 01:36:01;;;;;;;1030.38;963.42;;;;;;;25.77;43.67;101055.06;692963;28;45190;-60
2022/07/04 01:36:22;;;;;;;1026.00;959.22;;;;;;;25.77;43.26;101057.84;693183;28;23486;-60
2022/07/04 01:36:44;;;;;;;1027.75;960.95;;;;;;;25.77;43.42;101055.94;693925;28;22397;-62
2022/07/04 01:37:07;;;;;;;1019.20;952.75;;;;;;;25.78;43.39;101053.97;696005;28;21994;-64
2022/07/04 01:37:28;;;;;;;1018.83;952.38;;;;;;;25.79;43.42;101047.34;694082;28;69411;-63